sensor_id;sensor_type;location;lat;lon;timestamp;temperature;humidity
34766;DHT22;20984;43.508;1.504;2022-07-10T00:01:27;24.00;87.10
34766;DHT22;20984;43.508;1.504;2022-07-10T00:03:52;23.90;87.70
34766;DHT22;20984;43.508;1.504;2022-07-10T00:06:20;23.80;87.70
34766;DHT22;20984;43.508;1.504;2022-07-10T00:08:46;23.70;88.30
34766;DHT22;20984;43.508;1.504;2022-07-10T00:11:13;23.70;88.50
34766;DHT22;20984;43.508;1.504;2022-07-10T00:13:39;23.60;89.20
34766;DHT22;20984;43.508;1.504;2022-07-10T00:16:05;23.50;90.00
34766;DHT22;20984;43.508;1.504;2022-07-10T00:18:31;23.40;90.10
34766;DHT22;20984;43.508;1.504;2022-07-10T00:20:56;23.20;90.60
34766;DHT22;20984;43.508;1.504;2022-07-10T00:23:22;23.20;91.10
34766;DHT22;20984;43.508;1.504;2022-07-10T00:25:48;23.00;91.50
34766;DHT22;20984;43.508;1.504;2022-07-10T00:28:14;22.90;91.70
34766;DHT22;20984;43.508;1.504;2022-07-10T00:30:40;22.80;92.10
34766;DHT22;20984;43.508;1.504;2022-07-10T00:33:05;22.70;92.10
34766;DHT22;20984;43.508;1.504;2022-07-10T00:35:31;22.60;92.60
34766;DHT22;20984;43.508;1.504;2022-07-10T00:37:57;22.50;93.10
34766;DHT22;20984;43.508;1.504;2022-07-10T00:40:23;22.40;93.10
34766;DHT22;20984;43.508;1.504;2022-07-10T00:42:49;22.30;92.70
34766;DHT22;20984;43.508;1.504;2022-07-10T00:45:15;22.30;93.40
34766;DHT22;20984;43.508;1.504;2022-07-10T00:47:41;22.20;93.40
34766;DHT22;20984;43.508;1.504;2022-07-10T00:50:07;22.20;93.70
34766;DHT22;20984;43.508;1.504;2022-07-10T00:52:34;22.10;93.70
34766;DHT22;20984;43.508;1.504;2022-07-10T00:55:07;22.00;93.90
34766;DHT22;20984;43.508;1.504;2022-07-10T00:57:35;21.90;94.00
34766;DHT22;20984;43.508;1.504;2022-07-10T01:00:02;21.80;94.10
34766;DHT22;20984;43.508;1.504;2022-07-10T01:02:28;21.70;94.30
34766;DHT22;20984;43.508;1.504;2022-07-10T01:04:57;21.60;94.50
34766;DHT22;20984;43.508;1.504;2022-07-10T01:07:23;21.60;94.90
34766;DHT22;20984;43.508;1.504;2022-07-10T01:09:48;21.60;95.00
34766;DHT22;20984;43.508;1.504;2022-07-10T01:12:15;21.50;95.10
34766;DHT22;20984;43.508;1.504;2022-07-10T01:14:43;21.50;95.20
34766;DHT22;20984;43.508;1.504;2022-07-10T01:17:10;21.40;95.60
34766;DHT22;20984;43.508;1.504;2022-07-10T01:19:36;21.40;95.80
34766;DHT22;20984;43.508;1.504;2022-07-10T01:22:02;21.30;95.80
34766;DHT22;20984;43.508;1.504;2022-07-10T01:24:28;21.30;96.10
34766;DHT22;20984;43.508;1.504;2022-07-10T01:26:54;21.20;96.20
34766;DHT22;20984;43.508;1.504;2022-07-10T01:29:21;21.20;96.60
34766;DHT22;20984;43.508;1.504;2022-07-10T01:31:47;21.10;96.70
34766;DHT22;20984;43.508;1.504;2022-07-10T01:34:13;21.10;97.10
34766;DHT22;20984;43.508;1.504;2022-07-10T01:36:40;21.00;97.10
34766;DHT22;20984;43.508;1.504;2022-07-10T01:39:06;21.00;97.30
34766;DHT22;20984;43.508;1.504;2022-07-10T01:41:32;21.00;97.50
34766;DHT22;20984;43.508;1.504;2022-07-10T01:43:58;20.90;97.50
34766;DHT22;20984;43.508;1.504;2022-07-10T01:46:24;20.80;97.70
34766;DHT22;20984;43.508;1.504;2022-07-10T01:48:51;20.80;97.90
34766;DHT22;20984;43.508;1.504;2022-07-10T01:51:17;20.70;97.90
34766;DHT22;20984;43.508;1.504;2022-07-10T01:53:43;20.70;98.10
34766;DHT22;20984;43.508;1.504;2022-07-10T01:56:10;20.60;98.40
34766;DHT22;20984;43.508;1.504;2022-07-10T01:58:37;20.60;98.80
34766;DHT22;20984;43.508;1.504;2022-07-10T02:01:04;20.50;99.00
34766;DHT22;20984;43.508;1.504;2022-07-10T02:03:30;20.50;99.10
34766;DHT22;20984;43.508;1.504;2022-07-10T02:06:15;20.40;99.30
34766;DHT22;20984;43.508;1.504;2022-07-10T02:08:41;20.30;99.50
34766;DHT22;20984;43.508;1.504;2022-07-10T02:11:07;20.20;99.90
34766;DHT22;20984;43.508;1.504;2022-07-10T02:13:33;20.20;99.90
34766;DHT22;20984;43.508;1.504;2022-07-10T02:15:59;20.20;99.90
34766;DHT22;20984;43.508;1.504;2022-07-10T02:18:25;20.10;99.90
34766;DHT22;20984;43.508;1.504;2022-07-10T02:20:52;20.10;99.90
34766;DHT22;20984;43.508;1.504;2022-07-10T02:23:18;20.00;99.90
34766;DHT22;20984;43.508;1.504;2022-07-10T02:25:44;20.00;99.90
34766;DHT22;20984;43.508;1.504;2022-07-10T02:28:10;19.90;99.90
34766;DHT22;20984;43.508;1.504;2022-07-10T02:30:36;19.90;99.90
34766;DHT22;20984;43.508;1.504;2022-07-10T02:33:02;19.80;99.90
34766;DHT22;20984;43.508;1.504;2022-07-10T02:35:28;19.80;99.90
34766;DHT22;20984;43.508;1.504;2022-07-10T02:37:54;19.70;99.90
34766;DHT22;20984;43.508;1.504;2022-07-10T02:40:20;19.70;99.90
34766;DHT22;20984;43.508;1.504;2022-07-10T02:42:46;19.60;99.90
34766;DHT22;20984;43.508;1.504;2022-07-10T02:45:11;19.60;99.90
34766;DHT22;20984;43.508;1.504;2022-07-10T02:47:37;19.60;99.90
34766;DHT22;20984;43.508;1.504;2022-07-10T02:50:03;19.50;99.90
34766;DHT22;20984;43.508;1.504;2022-07-10T02:52:29;19.60;99.90
34766;DHT22;20984;43.508;1.504;2022-07-10T02:54:57;19.60;99.90
34766;DHT22;20984;43.508;1.504;2022-07-10T02:57:23;19.60;99.90
34766;DHT22;20984;43.508;1.504;2022-07-10T02:59:48;19.60;99.90
34766;DHT22;20984;43.508;1.504;2022-07-10T03:02:15;19.60;99.90
34766;DHT22;20984;43.508;1.504;2022-07-10T03:04:42;19.60;99.90
34766;DHT22;20984;43.508;1.504;2022-07-10T03:07:08;19.60;99.90
34766;DHT22;20984;43.508;1.504;2022-07-10T03:09:34;19.60;99.90
34766;DHT22;20984;43.508;1.504;2022-07-10T03:12:00;19.50;99.90
34766;DHT22;20984;43.508;1.504;2022-07-10T03:14:26;19.50;99.90
34766;DHT22;20984;43.508;1.504;2022-07-10T03:16:52;19.50;99.90
34766;DHT22;20984;43.508;1.504;2022-07-10T03:19:18;19.50;99.90
34766;DHT22;20984;43.508;1.504;2022-07-10T03:21:44;19.40;99.90
34766;DHT22;20984;43.508;1.504;2022-07-10T03:24:11;19.50;99.90
34766;DHT22;20984;43.508;1.504;2022-07-10T03:26:37;19.40;99.90
34766;DHT22;20984;43.508;1.504;2022-07-10T03:29:03;19.30;99.90
34766;DHT22;20984;43.508;1.504;2022-07-10T03:31:28;19.30;99.90
34766;DHT22;20984;43.508;1.504;2022-07-10T03:33:54;19.30;99.90
34766;DHT22;20984;43.508;1.504;2022-07-10T03:36:20;19.20;99.90
34766;DHT22;20984;43.508;1.504;2022-07-10T03:38:46;19.20;99.90
34766;DHT22;20984;43.508;1.504;2022-07-10T03:41:13;19.10;99.90
34766;DHT22;20984;43.508;1.504;2022-07-10T03:43:39;19.20;99.90
34766;DHT22;20984;43.508;1.504;2022-07-10T03:46:05;19.20;99.90
34766;DHT22;20984;43.508;1.504;2022-07-10T03:48:31;19.20;99.90
34766;DHT22;20984;43.508;1.504;2022-07-10T03:50:58;19.10;99.90
34766;DHT22;20984;43.508;1.504;2022-07-10T03:53:24;19.10;99.90
34766;DHT22;20984;43.508;1.504;2022-07-10T03:55:50;19.10;99.90
34766;DHT22;20984;43.508;1.504;2022-07-10T03:58:16;19.10;99.90
34766;DHT22;20984;43.508;1.504;2022-07-10T04:00:41;19.10;99.90
34766;DHT22;20984;43.508;1.504;2022-07-10T04:03:09;19.00;99.90
34766;DHT22;20984;43.508;1.504;2022-07-10T04:05:35;19.00;99.90
34766;DHT22;20984;43.508;1.504;2022-07-10T04:08:02;19.00;99.90
34766;DHT22;20984;43.508;1.504;2022-07-10T04:10:30;18.90;99.90
34766;DHT22;20984;43.508;1.504;2022-07-10T04:12:59;18.80;99.90
34766;DHT22;20984;43.508;1.504;2022-07-10T04:15:25;18.70;99.90
34766;DHT22;20984;43.508;1.504;2022-07-10T04:17:52;18.70;99.90
34766;DHT22;20984;43.508;1.504;2022-07-10T04:20:18;18.70;99.90
34766;DHT22;20984;43.508;1.504;2022-07-10T04:22:45;18.70;99.90
34766;DHT22;20984;43.508;1.504;2022-07-10T04:25:11;18.60;99.90
34766;DHT22;20984;43.508;1.504;2022-07-10T04:27:37;18.60;99.90
34766;DHT22;20984;43.508;1.504;2022-07-10T04:30:04;18.60;99.90
34766;DHT22;20984;43.508;1.504;2022-07-10T04:32:29;18.50;99.90
34766;DHT22;20984;43.508;1.504;2022-07-10T04:34:55;18.50;99.90
34766;DHT22;20984;43.508;1.504;2022-07-10T04:37:22;18.50;99.90
34766;DHT22;20984;43.508;1.504;2022-07-10T04:39:47;18.50;99.90
34766;DHT22;20984;43.508;1.504;2022-07-10T04:42:13;18.40;99.90
34766;DHT22;20984;43.508;1.504;2022-07-10T04:44:39;18.40;99.90
34766;DHT22;20984;43.508;1.504;2022-07-10T04:47:06;18.50;99.90
34766;DHT22;20984;43.508;1.504;2022-07-10T04:49:32;18.50;99.90
34766;DHT22;20984;43.508;1.504;2022-07-10T04:51:59;18.60;99.90
34766;DHT22;20984;43.508;1.504;2022-07-10T04:54:25;18.70;99.90
34766;DHT22;20984;43.508;1.504;2022-07-10T04:56:50;18.70;99.90
34766;DHT22;20984;43.508;1.504;2022-07-10T04:59:16;18.70;99.90
34766;DHT22;20984;43.508;1.504;2022-07-10T05:01:42;18.80;99.90
34766;DHT22;20984;43.508;1.504;2022-07-10T05:04:08;18.80;99.90
34766;DHT22;20984;43.508;1.504;2022-07-10T05:06:34;18.90;99.90
34766;DHT22;20984;43.508;1.504;2022-07-10T05:09:00;19.00;99.90
34766;DHT22;20984;43.508;1.504;2022-07-10T05:11:26;19.10;99.90
34766;DHT22;20984;43.508;1.504;2022-07-10T05:13:52;19.20;99.90
34766;DHT22;20984;43.508;1.504;2022-07-10T05:16:18;19.30;99.90
34766;DHT22;20984;43.508;1.504;2022-07-10T05:18:45;19.30;99.90
34766;DHT22;20984;43.508;1.504;2022-07-10T05:21:11;19.30;99.90
34766;DHT22;20984;43.508;1.504;2022-07-10T05:23:38;19.40;99.90
34766;DHT22;20984;43.508;1.504;2022-07-10T05:26:05;19.40;99.90
34766;DHT22;20984;43.508;1.504;2022-07-10T05:28:31;19.50;99.90
34766;DHT22;20984;43.508;1.504;2022-07-10T05:30:56;19.60;99.90
34766;DHT22;20984;43.508;1.504;2022-07-10T05:33:22;19.80;99.90
34766;DHT22;20984;43.508;1.504;2022-07-10T05:35:48;19.80;99.90
34766;DHT22;20984;43.508;1.504;2022-07-10T05:38:14;19.70;99.90
34766;DHT22;20984;43.508;1.504;2022-07-10T05:40:40;19.80;99.90
34766;DHT22;20984;43.508;1.504;2022-07-10T05:43:06;19.90;99.90
34766;DHT22;20984;43.508;1.504;2022-07-10T05:45:32;20.00;99.90
34766;DHT22;20984;43.508;1.504;2022-07-10T05:47:58;20.00;99.90
34766;DHT22;20984;43.508;1.504;2022-07-10T05:50:24;20.10;99.90
34766;DHT22;20984;43.508;1.504;2022-07-10T05:52:49;20.20;99.90
34766;DHT22;20984;43.508;1.504;2022-07-10T05:55:15;20.30;99.90
34766;DHT22;20984;43.508;1.504;2022-07-10T05:57:41;20.40;99.90
34766;DHT22;20984;43.508;1.504;2022-07-10T06:00:08;20.50;99.90
34766;DHT22;20984;43.508;1.504;2022-07-10T06:02:34;20.60;99.90
34766;DHT22;20984;43.508;1.504;2022-07-10T06:05:01;20.80;99.90
34766;DHT22;20984;43.508;1.504;2022-07-10T06:07:27;20.80;99.90
34766;DHT22;20984;43.508;1.504;2022-07-10T06:09:53;21.00;99.90
34766;DHT22;20984;43.508;1.504;2022-07-10T06:12:19;21.10;99.90
34766;DHT22;20984;43.508;1.504;2022-07-10T06:14:45;21.20;99.90
34766;DHT22;20984;43.508;1.504;2022-07-10T06:17:11;21.30;99.90
34766;DHT22;20984;43.508;1.504;2022-07-10T06:19:37;21.40;99.90
34766;DHT22;20984;43.508;1.504;2022-07-10T06:22:03;21.40;99.90
34766;DHT22;20984;43.508;1.504;2022-07-10T06:24:48;21.50;99.90
34766;DHT22;20984;43.508;1.504;2022-07-10T06:27:14;21.60;99.90
34766;DHT22;20984;43.508;1.504;2022-07-10T06:29:40;21.70;99.90
34766;DHT22;20984;43.508;1.504;2022-07-10T06:32:06;21.80;99.90
34766;DHT22;20984;43.508;1.504;2022-07-10T06:34:32;21.90;99.90
34766;DHT22;20984;43.508;1.504;2022-07-10T06:36:58;21.90;99.90
34766;DHT22;20984;43.508;1.504;2022-07-10T06:39:24;21.90;99.90
34766;DHT22;20984;43.508;1.504;2022-07-10T06:41:50;22.00;99.90
34766;DHT22;20984;43.508;1.504;2022-07-10T06:44:15;22.00;99.90
34766;DHT22;20984;43.508;1.504;2022-07-10T06:46:41;22.10;99.90
34766;DHT22;20984;43.508;1.504;2022-07-10T06:49:07;22.20;99.90
34766;DHT22;20984;43.508;1.504;2022-07-10T06:51:34;22.20;99.90
34766;DHT22;20984;43.508;1.504;2022-07-10T06:54:00;22.20;99.90
34766;DHT22;20984;43.508;1.504;2022-07-10T06:56:26;22.30;99.90
34766;DHT22;20984;43.508;1.504;2022-07-10T06:58:52;22.40;99.90
34766;DHT22;20984;43.508;1.504;2022-07-10T07:01:18;22.50;99.90
34766;DHT22;20984;43.508;1.504;2022-07-10T07:03:44;22.50;99.90
34766;DHT22;20984;43.508;1.504;2022-07-10T07:06:10;22.60;99.90
34766;DHT22;20984;43.508;1.504;2022-07-10T07:08:36;22.70;99.90
34766;DHT22;20984;43.508;1.504;2022-07-10T07:11:02;22.90;99.90
34766;DHT22;20984;43.508;1.504;2022-07-10T07:13:28;23.00;99.90
34766;DHT22;20984;43.508;1.504;2022-07-10T07:15:54;23.10;99.90
34766;DHT22;20984;43.508;1.504;2022-07-10T07:18:25;23.10;99.90
34766;DHT22;20984;43.508;1.504;2022-07-10T07:21:01;23.10;99.90
34766;DHT22;20984;43.508;1.504;2022-07-10T07:23:46;23.10;99.90
34766;DHT22;20984;43.508;1.504;2022-07-10T07:26:11;23.20;99.90
34766;DHT22;20984;43.508;1.504;2022-07-10T07:28:37;23.20;99.90
34766;DHT22;20984;43.508;1.504;2022-07-10T07:31:03;23.20;99.90
34766;DHT22;20984;43.508;1.504;2022-07-10T07:33:30;23.30;99.90
34766;DHT22;20984;43.508;1.504;2022-07-10T07:35:56;23.30;99.90
34766;DHT22;20984;43.508;1.504;2022-07-10T07:38:21;23.40;99.90
34766;DHT22;20984;43.508;1.504;2022-07-10T07:40:47;23.60;99.90
34766;DHT22;20984;43.508;1.504;2022-07-10T07:43:13;23.70;99.90
34766;DHT22;20984;43.508;1.504;2022-07-10T07:45:39;23.70;99.90
34766;DHT22;20984;43.508;1.504;2022-07-10T07:48:05;24.00;99.90
34766;DHT22;20984;43.508;1.504;2022-07-10T07:50:33;24.10;99.90
34766;DHT22;20984;43.508;1.504;2022-07-10T07:53:03;24.30;99.50
34766;DHT22;20984;43.508;1.504;2022-07-10T07:55:30;24.30;98.90
34766;DHT22;20984;43.508;1.504;2022-07-10T07:57:57;24.30;98.60
34766;DHT22;20984;43.508;1.504;2022-07-10T08:00:24;24.30;97.50
34766;DHT22;20984;43.508;1.504;2022-07-10T08:02:51;24.30;97.70
34766;DHT22;20984;43.508;1.504;2022-07-10T08:05:17;24.30;97.70
34766;DHT22;20984;43.508;1.504;2022-07-10T08:07:46;24.40;97.00
34766;DHT22;20984;43.508;1.504;2022-07-10T08:10:14;24.40;97.00
34766;DHT22;20984;43.508;1.504;2022-07-10T08:12:42;24.50;97.50
34766;DHT22;20984;43.508;1.504;2022-07-10T08:15:09;24.60;97.50
34766;DHT22;20984;43.508;1.504;2022-07-10T08:17:36;24.80;98.00
34766;DHT22;20984;43.508;1.504;2022-07-10T08:20:03;25.00;97.40
34766;DHT22;20984;43.508;1.504;2022-07-10T08:22:30;25.20;96.40
34766;DHT22;20984;43.508;1.504;2022-07-10T08:24:55;25.30;97.00
34766;DHT22;20984;43.508;1.504;2022-07-10T08:27:24;25.40;96.70
34766;DHT22;20984;43.508;1.504;2022-07-10T08:29:50;25.60;96.20
34766;DHT22;20984;43.508;1.504;2022-07-10T08:32:16;25.80;95.60
34766;DHT22;20984;43.508;1.504;2022-07-10T08:34:42;25.80;94.40
34766;DHT22;20984;43.508;1.504;2022-07-10T08:37:08;25.80;94.50
34766;DHT22;20984;43.508;1.504;2022-07-10T08:39:34;25.90;94.30
34766;DHT22;20984;43.508;1.504;2022-07-10T08:42:00;26.00;93.00
34766;DHT22;20984;43.508;1.504;2022-07-10T08:44:30;26.00;92.90
34766;DHT22;20984;43.508;1.504;2022-07-10T08:46:56;26.10;92.80
34766;DHT22;20984;43.508;1.504;2022-07-10T08:49:28;26.20;92.60
34766;DHT22;20984;43.508;1.504;2022-07-10T08:52:08;26.30;92.80
34766;DHT22;20984;43.508;1.504;2022-07-10T08:54:38;26.30;92.10
34766;DHT22;20984;43.508;1.504;2022-07-10T08:57:04;26.40;91.90
34766;DHT22;20984;43.508;1.504;2022-07-10T08:59:31;26.50;92.30
34766;DHT22;20984;43.508;1.504;2022-07-10T09:01:58;26.60;90.10
34766;DHT22;20984;43.508;1.504;2022-07-10T09:04:25;26.70;88.70
34766;DHT22;20984;43.508;1.504;2022-07-10T09:06:52;26.70;90.00
34766;DHT22;20984;43.508;1.504;2022-07-10T09:09:19;26.70;90.10
34766;DHT22;20984;43.508;1.504;2022-07-10T09:11:45;26.70;89.60
34766;DHT22;20984;43.508;1.504;2022-07-10T09:14:14;26.70;87.70
34766;DHT22;20984;43.508;1.504;2022-07-10T09:16:45;26.80;89.40
34766;DHT22;20984;43.508;1.504;2022-07-10T09:19:19;26.90;89.20
34766;DHT22;20984;43.508;1.504;2022-07-10T09:21:50;27.00;89.40
34766;DHT22;20984;43.508;1.504;2022-07-10T09:24:17;27.00;87.50
34766;DHT22;20984;43.508;1.504;2022-07-10T09:27:00;27.10;88.30
34766;DHT22;20984;43.508;1.504;2022-07-10T09:29:30;27.20;87.60
34766;DHT22;20984;43.508;1.504;2022-07-10T09:31:58;27.20;86.10
34766;DHT22;20984;43.508;1.504;2022-07-10T09:34:44;27.30;85.60
34766;DHT22;20984;43.508;1.504;2022-07-10T09:37:23;27.30;82.90
34766;DHT22;20984;43.508;1.504;2022-07-10T09:39:57;27.40;82.20
34766;DHT22;20984;43.508;1.504;2022-07-10T09:42:40;27.50;84.40
34766;DHT22;20984;43.508;1.504;2022-07-10T09:47:55;27.70;83.90
34766;DHT22;20984;43.508;1.504;2022-07-10T09:50:24;27.80;80.60
34766;DHT22;20984;43.508;1.504;2022-07-10T09:52:52;27.90;81.10
34766;DHT22;20984;43.508;1.504;2022-07-10T09:55:23;28.00;80.70
34766;DHT22;20984;43.508;1.504;2022-07-10T09:57:58;28.00;79.50
34766;DHT22;20984;43.508;1.504;2022-07-10T10:00:28;27.90;78.80
34766;DHT22;20984;43.508;1.504;2022-07-10T10:02:57;27.90;80.10
34766;DHT22;20984;43.508;1.504;2022-07-10T10:05:55;28.10;79.60
34766;DHT22;20984;43.508;1.504;2022-07-10T10:08:44;28.20;78.70
34766;DHT22;20984;43.508;1.504;2022-07-10T10:11:14;28.20;79.30
34766;DHT22;20984;43.508;1.504;2022-07-10T10:13:41;28.30;78.40
34766;DHT22;20984;43.508;1.504;2022-07-10T10:16:08;28.30;76.00
34766;DHT22;20984;43.508;1.504;2022-07-10T10:18:37;28.30;76.70
34766;DHT22;20984;43.508;1.504;2022-07-10T10:21:23;28.40;76.90
34766;DHT22;20984;43.508;1.504;2022-07-10T10:23:50;28.50;75.80
34766;DHT22;20984;43.508;1.504;2022-07-10T10:26:17;28.50;76.90
34766;DHT22;20984;43.508;1.504;2022-07-10T10:28:43;28.60;75.50
34766;DHT22;20984;43.508;1.504;2022-07-10T10:31:10;28.70;73.90
34766;DHT22;20984;43.508;1.504;2022-07-10T10:36:06;28.90;76.00
34766;DHT22;20984;43.508;1.504;2022-07-10T10:41:29;29.40;75.20
34766;DHT22;20984;43.508;1.504;2022-07-10T10:49:21;29.90;73.20
34766;DHT22;20984;43.508;1.504;2022-07-10T10:52:08;30.00;71.50
34766;DHT22;20984;43.508;1.504;2022-07-10T10:57:43;29.80;70.40
34766;DHT22;20984;43.508;1.504;2022-07-10T11:00:15;29.90;71.40
34766;DHT22;20984;43.508;1.504;2022-07-10T11:02:41;30.00;70.20
34766;DHT22;20984;43.508;1.504;2022-07-10T11:07:54;30.10;71.00
34766;DHT22;20984;43.508;1.504;2022-07-10T11:10:31;30.20;68.30
34766;DHT22;20984;43.508;1.504;2022-07-10T11:13:04;30.30;68.90
34766;DHT22;20984;43.508;1.504;2022-07-10T11:15:31;30.30;64.30
34766;DHT22;20984;43.508;1.504;2022-07-10T11:18:18;30.30;65.60
34766;DHT22;20984;43.508;1.504;2022-07-10T11:20:50;30.30;63.20
34766;DHT22;20984;43.508;1.504;2022-07-10T11:26:08;30.10;63.70
34766;DHT22;20984;43.508;1.504;2022-07-10T11:28:58;30.10;64.90
34766;DHT22;20984;43.508;1.504;2022-07-10T11:31:27;30.00;63.10
34766;DHT22;20984;43.508;1.504;2022-07-10T11:33:54;30.00;59.50
34766;DHT22;20984;43.508;1.504;2022-07-10T11:36:25;30.00;61.70
34766;DHT22;20984;43.508;1.504;2022-07-10T11:39:03;30.00;63.80
34766;DHT22;20984;43.508;1.504;2022-07-10T11:41:30;30.20;66.20
34766;DHT22;20984;43.508;1.504;2022-07-10T11:44:00;30.30;62.10
34766;DHT22;20984;43.508;1.504;2022-07-10T11:46:32;30.30;63.10
34766;DHT22;20984;43.508;1.504;2022-07-10T11:48:59;30.20;63.50
34766;DHT22;20984;43.508;1.504;2022-07-10T11:51:28;30.30;62.60
34766;DHT22;20984;43.508;1.504;2022-07-10T11:54:02;30.50;62.10
34766;DHT22;20984;43.508;1.504;2022-07-10T11:56:31;30.40;62.20
34766;DHT22;20984;43.508;1.504;2022-07-10T11:59:10;30.50;61.90
34766;DHT22;20984;43.508;1.504;2022-07-10T12:01:44;30.50;61.10
34766;DHT22;20984;43.508;1.504;2022-07-10T12:04:11;30.80;60.60
34766;DHT22;20984;43.508;1.504;2022-07-10T12:06:42;30.70;58.90
34766;DHT22;20984;43.508;1.504;2022-07-10T12:09:10;30.80;60.30
34766;DHT22;20984;43.508;1.504;2022-07-10T12:11:37;31.00;61.70
34766;DHT22;20984;43.508;1.504;2022-07-10T12:14:18;31.10;60.70
34766;DHT22;20984;43.508;1.504;2022-07-10T12:16:49;31.30;59.40
34766;DHT22;20984;43.508;1.504;2022-07-10T12:19:19;31.30;57.90
34766;DHT22;20984;43.508;1.504;2022-07-10T12:21:46;31.40;57.80
34766;DHT22;20984;43.508;1.504;2022-07-10T12:24:15;31.50;58.80
34766;DHT22;20984;43.508;1.504;2022-07-10T12:26:43;31.40;59.50
34766;DHT22;20984;43.508;1.504;2022-07-10T12:29:29;31.40;58.00
34766;DHT22;20984;43.508;1.504;2022-07-10T12:31:57;31.40;56.10
34766;DHT22;20984;43.508;1.504;2022-07-10T12:34:37;31.50;57.10
34766;DHT22;20984;43.508;1.504;2022-07-10T12:37:12;31.50;55.40
34766;DHT22;20984;43.508;1.504;2022-07-10T12:39:52;31.40;54.50
34766;DHT22;20984;43.508;1.504;2022-07-10T12:42:29;31.40;54.30
34766;DHT22;20984;43.508;1.504;2022-07-10T12:45:09;31.60;54.00
34766;DHT22;20984;43.508;1.504;2022-07-10T12:47:48;31.60;53.10
34766;DHT22;20984;43.508;1.504;2022-07-10T12:50:16;31.60;51.90
34766;DHT22;20984;43.508;1.504;2022-07-10T12:52:44;31.80;54.20
34766;DHT22;20984;43.508;1.504;2022-07-10T12:55:19;31.90;50.90
34766;DHT22;20984;43.508;1.504;2022-07-10T12:57:51;32.00;50.70
34766;DHT22;20984;43.508;1.504;2022-07-10T13:00:23;32.00;52.40
34766;DHT22;20984;43.508;1.504;2022-07-10T13:02:58;32.10;52.90
34766;DHT22;20984;43.508;1.504;2022-07-10T13:05:38;32.10;54.00
34766;DHT22;20984;43.508;1.504;2022-07-10T13:10:44;32.20;55.10
34766;DHT22;20984;43.508;1.504;2022-07-10T13:13:10;32.40;55.20
34766;DHT22;20984;43.508;1.504;2022-07-10T13:15:37;32.60;54.70
34766;DHT22;20984;43.508;1.504;2022-07-10T13:18:14;32.90;54.70
34766;DHT22;20984;43.508;1.504;2022-07-10T13:20:40;33.00;53.30
34766;DHT22;20984;43.508;1.504;2022-07-10T13:23:06;33.00;54.20
34766;DHT22;20984;43.508;1.504;2022-07-10T13:25:32;33.00;48.00
34766;DHT22;20984;43.508;1.504;2022-07-10T13:27:59;33.10;48.80
34766;DHT22;20984;43.508;1.504;2022-07-10T13:30:25;33.30;52.50
34766;DHT22;20984;43.508;1.504;2022-07-10T13:32:51;33.40;52.90
34766;DHT22;20984;43.508;1.504;2022-07-10T13:35:17;33.40;52.10
34766;DHT22;20984;43.508;1.504;2022-07-10T13:37:43;33.40;52.90
34766;DHT22;20984;43.508;1.504;2022-07-10T13:40:09;33.40;50.30
34766;DHT22;20984;43.508;1.504;2022-07-10T13:42:35;33.30;49.20
34766;DHT22;20984;43.508;1.504;2022-07-10T13:45:01;33.40;50.00
34766;DHT22;20984;43.508;1.504;2022-07-10T13:47:26;33.50;49.10
34766;DHT22;20984;43.508;1.504;2022-07-10T13:49:52;33.40;49.10
34766;DHT22;20984;43.508;1.504;2022-07-10T13:52:18;33.50;49.00
34766;DHT22;20984;43.508;1.504;2022-07-10T13:54:44;33.40;46.90
34766;DHT22;20984;43.508;1.504;2022-07-10T13:57:09;33.40;46.50
34766;DHT22;20984;43.508;1.504;2022-07-10T13:59:35;33.50;48.60
34766;DHT22;20984;43.508;1.504;2022-07-10T14:02:01;33.60;49.50
34766;DHT22;20984;43.508;1.504;2022-07-10T14:04:27;33.90;50.20
34766;DHT22;20984;43.508;1.504;2022-07-10T14:06:53;34.20;50.10
34766;DHT22;20984;43.508;1.504;2022-07-10T14:09:20;34.30;50.90
34766;DHT22;20984;43.508;1.504;2022-07-10T14:11:48;34.60;50.10
34766;DHT22;20984;43.508;1.504;2022-07-10T14:14:14;34.50;49.40
34766;DHT22;20984;43.508;1.504;2022-07-10T14:16:40;34.70;50.80
34766;DHT22;20984;43.508;1.504;2022-07-10T14:19:08;34.90;51.10
34766;DHT22;20984;43.508;1.504;2022-07-10T14:21:33;34.80;49.20
34766;DHT22;20984;43.508;1.504;2022-07-10T14:24:02;34.80;49.00
34766;DHT22;20984;43.508;1.504;2022-07-10T14:26:28;34.90;50.30
34766;DHT22;20984;43.508;1.504;2022-07-10T14:28:54;35.10;48.50
34766;DHT22;20984;43.508;1.504;2022-07-10T14:31:20;35.10;46.80
34766;DHT22;20984;43.508;1.504;2022-07-10T14:33:46;35.40;48.60
34766;DHT22;20984;43.508;1.504;2022-07-10T14:36:12;36.30;48.30
34766;DHT22;20984;43.508;1.504;2022-07-10T14:38:38;37.40;46.70
34766;DHT22;20984;43.508;1.504;2022-07-10T14:41:04;38.40;44.60
34766;DHT22;20984;43.508;1.504;2022-07-10T14:43:31;39.60;43.30
34766;DHT22;20984;43.508;1.504;2022-07-10T14:46:00;40.60;43.20
34766;DHT22;20984;43.508;1.504;2022-07-10T14:48:30;41.80;40.40
34766;DHT22;20984;43.508;1.504;2022-07-10T14:50:56;41.80;38.80
34766;DHT22;20984;43.508;1.504;2022-07-10T14:53:25;41.40;39.90
34766;DHT22;20984;43.508;1.504;2022-07-10T14:55:51;41.50;38.10
34766;DHT22;20984;43.508;1.504;2022-07-10T14:58:17;41.70;38.10
34766;DHT22;20984;43.508;1.504;2022-07-10T15:00:43;42.10;38.00
34766;DHT22;20984;43.508;1.504;2022-07-10T15:03:09;42.00;36.80
34766;DHT22;20984;43.508;1.504;2022-07-10T15:05:35;42.20;36.10
34766;DHT22;20984;43.508;1.504;2022-07-10T15:08:02;41.60;36.90
34766;DHT22;20984;43.508;1.504;2022-07-10T15:10:29;41.60;38.30
34766;DHT22;20984;43.508;1.504;2022-07-10T15:12:55;41.70;36.20
34766;DHT22;20984;43.508;1.504;2022-07-10T15:15:21;41.60;34.80
34766;DHT22;20984;43.508;1.504;2022-07-10T15:17:47;41.00;35.10
34766;DHT22;20984;43.508;1.504;2022-07-10T15:20:13;41.10;35.70
34766;DHT22;20984;43.508;1.504;2022-07-10T15:22:39;41.20;36.80
34766;DHT22;20984;43.508;1.504;2022-07-10T15:25:05;42.10;37.20
34766;DHT22;20984;43.508;1.504;2022-07-10T15:27:31;42.70;35.20
34766;DHT22;20984;43.508;1.504;2022-07-10T15:29:57;42.80;34.30
34766;DHT22;20984;43.508;1.504;2022-07-10T15:32:23;43.20;35.70
34766;DHT22;20984;43.508;1.504;2022-07-10T15:34:49;43.60;35.40
34766;DHT22;20984;43.508;1.504;2022-07-10T15:37:16;43.50;33.50
34766;DHT22;20984;43.508;1.504;2022-07-10T15:39:42;43.90;33.80
34766;DHT22;20984;43.508;1.504;2022-07-10T15:42:11;44.30;33.80
34766;DHT22;20984;43.508;1.504;2022-07-10T15:44:37;44.80;34.30
34766;DHT22;20984;43.508;1.504;2022-07-10T15:47:04;44.90;34.60
34766;DHT22;20984;43.508;1.504;2022-07-10T15:49:30;45.10;34.00
34766;DHT22;20984;43.508;1.504;2022-07-10T15:51:56;45.20;34.30
34766;DHT22;20984;43.508;1.504;2022-07-10T15:54:27;45.30;34.20
34766;DHT22;20984;43.508;1.504;2022-07-10T15:56:53;45.70;33.60
34766;DHT22;20984;43.508;1.504;2022-07-10T15:59:19;45.70;32.20